N2231F KORL-KLEE
Flight info
| Callsign | N2231F |
|---|---|
| Flight time | 0h 19m |
| Altitude | 3500 |
| Route | FA83 |
| Aircraft | C172/L-VGD/A |
Departure
| Time | 2026-05-05 00:49 |
|---|---|
| Airport | Orlando Executive Airport (KORL) |
Arrival
| Time | 2026-05-05 01:08 |
|---|---|
| Airport | Leesburg International Airport (KLEE) |
| Time | Latitude | Longitude | Altitude | Speed | Heading |
|---|---|---|---|---|---|
| 2026-05-05 00:25 | 28.54944 | -81.33489 | 106 ft | 0 kts | 42° |
| 2026-05-05 00:37 | 28.54937 | -81.33468 | 106 ft | 8 kts | 175° |
| 2026-05-05 00:38 | 28.54874 | -81.33453 | 106 ft | 10 kts | 150° |
| 2026-05-05 00:38 | 28.54813 | -81.33480 | 106 ft | 10 kts | 225° |
| 2026-05-05 00:38 | 28.54746 | -81.33549 | 105 ft | 15 kts | 218° |
| 2026-05-05 00:38 | 28.54693 | -81.33521 | 105 ft | 10 kts | 84° |
| 2026-05-05 00:39 | 28.54700 | -81.33420 | 106 ft | 15 kts | 89° |
| 2026-05-05 00:39 | 28.54706 | -81.33311 | 107 ft | 10 kts | 98° |
| 2026-05-05 00:39 | 28.54670 | -81.33299 | 107 ft | 10 kts | 245° |
| 2026-05-05 00:39 | 28.54622 | -81.33430 | 106 ft | 19 kts | 248° |
| 2026-05-05 00:40 | 28.54582 | -81.33536 | 105 ft | 8 kts | 246° |
| 2026-05-05 00:40 | 28.54559 | -81.33594 | 104 ft | 15 kts | 246° |
| 2026-05-05 00:40 | 28.54545 | -81.33633 | 104 ft | 1 kts | 242° |
| 2026-05-05 00:40 | 28.54506 | -81.33741 | 104 ft | 17 kts | 248° |
| 2026-05-05 00:41 | 28.54469 | -81.33839 | 103 ft | 10 kts | 241° |
| 2026-05-05 00:41 | 28.54440 | -81.33906 | 103 ft | 9 kts | 243° |
| 2026-05-05 00:41 | 28.54399 | -81.33923 | 103 ft | 5 kts | 149° |
| 2026-05-05 00:41 | 28.54379 | -81.33913 | 103 ft | 0 kts | 159° |
| 2026-05-05 00:42 | 28.54378 | -81.33913 | 103 ft | 0 kts | 154° |
| 2026-05-05 00:48 | 28.54376 | -81.33912 | 103 ft | 0 kts | 148° |
| 2026-05-05 00:48 | 28.54357 | -81.33903 | 103 ft | 11 kts | 159° |
| 2026-05-05 00:48 | 28.54341 | -81.33772 | 103 ft | 38 kts | 68° |
| 2026-05-05 00:48 | 28.54508 | -81.33351 | 185 ft | 68 kts | 67° |
| 2026-05-05 00:49 | 28.54700 | -81.32831 | 395 ft | 70 kts | 68° |
| 2026-05-05 00:49 | 28.54892 | -81.32329 | 640 ft | 68 kts | 68° |
| 2026-05-05 00:49 | 28.55090 | -81.31847 | 867 ft | 67 kts | 66° |
| 2026-05-05 00:49 | 28.55298 | -81.31349 | 1044 ft | 73 kts | 71° |
| 2026-05-05 00:50 | 28.55578 | -81.30853 | 1230 ft | 79 kts | 41° |
| 2026-05-05 00:50 | 28.56121 | -81.30821 | 1519 ft | 80 kts | 1° |
| 2026-05-05 00:50 | 28.56673 | -81.30939 | 1706 ft | 84 kts | 2° |
| 2026-05-05 00:50 | 28.57263 | -81.31158 | 1875 ft | 92 kts | 349° |
| 2026-05-05 00:51 | 28.57867 | -81.31441 | 2058 ft | 95 kts | 347° |
| 2026-05-05 00:51 | 28.58485 | -81.31716 | 2260 ft | 94 kts | 348° |
| 2026-05-05 00:51 | 28.59091 | -81.31988 | 2475 ft | 91 kts | 347° |
| 2026-05-05 00:51 | 28.59637 | -81.32368 | 2692 ft | 92 kts | 334° |
| 2026-05-05 00:52 | 28.60166 | -81.32763 | 2908 ft | 89 kts | 333° |
| 2026-05-05 00:52 | 28.60675 | -81.33147 | 3121 ft | 87 kts | 329° |
| 2026-05-05 00:52 | 28.61095 | -81.33633 | 3338 ft | 85 kts | 317° |
| 2026-05-05 00:52 | 28.61493 | -81.34106 | 3550 ft | 82 kts | 317° |
| 2026-05-05 00:53 | 28.61882 | -81.34558 | 3763 ft | 78 kts | 317° |
| 2026-05-05 00:53 | 28.62310 | -81.35053 | 3784 ft | 98 kts | 317° |
| 2026-05-05 00:53 | 28.62819 | -81.35681 | 3723 ft | 114 kts | 315° |
| 2026-05-05 00:53 | 28.63387 | -81.36387 | 3470 ft | 130 kts | 320° |
| 2026-05-05 00:54 | 28.64008 | -81.37023 | 3459 ft | 111 kts | 323° |
| 2026-05-05 00:54 | 28.64556 | -81.37573 | 3456 ft | 99 kts | 324° |
| 2026-05-05 00:54 | 28.65053 | -81.38070 | 3456 ft | 90 kts | 325° |
| 2026-05-05 00:54 | 28.65510 | -81.38532 | 3457 ft | 84 kts | 324° |
| 2026-05-05 00:55 | 28.65932 | -81.38965 | 3460 ft | 79 kts | 324° |
| 2026-05-05 00:55 | 28.66319 | -81.39391 | 3458 ft | 76 kts | 318° |
| 2026-05-05 00:55 | 28.66724 | -81.39878 | 3484 ft | 96 kts | 318° |
| 2026-05-05 00:55 | 28.67234 | -81.40475 | 3480 ft | 111 kts | 319° |
| 2026-05-05 00:56 | 28.67794 | -81.41129 | 3470 ft | 117 kts | 319° |
| 2026-05-05 00:56 | 28.68374 | -81.41799 | 3465 ft | 119 kts | 319° |
| 2026-05-05 00:56 | 28.68960 | -81.42480 | 3464 ft | 120 kts | 319° |
| 2026-05-05 00:56 | 28.69547 | -81.43152 | 3463 ft | 120 kts | 319° |
| 2026-05-05 00:57 | 28.70140 | -81.43832 | 3463 ft | 121 kts | 319° |
| 2026-05-05 00:57 | 28.70734 | -81.44518 | 3463 ft | 121 kts | 319° |
| 2026-05-05 00:57 | 28.71339 | -81.45207 | 3463 ft | 122 kts | 319° |
| 2026-05-05 00:57 | 28.71938 | -81.45890 | 3462 ft | 121 kts | 319° |
| 2026-05-05 00:58 | 28.72537 | -81.46569 | 3464 ft | 121 kts | 319° |
| 2026-05-05 00:58 | 28.73060 | -81.47330 | 3466 ft | 122 kts | 310° |
| 2026-05-05 00:58 | 28.73562 | -81.48122 | 3467 ft | 123 kts | 309° |
| 2026-05-05 00:58 | 28.74056 | -81.48915 | 3467 ft | 123 kts | 309° |
| 2026-05-05 00:59 | 28.74546 | -81.49727 | 3461 ft | 124 kts | 298° |
| 2026-05-05 00:59 | 28.74811 | -81.50656 | 3468 ft | 123 kts | 288° |
| 2026-05-05 00:59 | 28.75061 | -81.51593 | 3467 ft | 125 kts | 288° |
| 2026-05-05 00:59 | 28.75317 | -81.52550 | 3468 ft | 126 kts | 288° |
| 2026-05-05 01:00 | 28.75576 | -81.53510 | 3465 ft | 126 kts | 288° |
| 2026-05-05 01:00 | 28.75795 | -81.54483 | 3466 ft | 127 kts | 283° |
| 2026-05-05 01:00 | 28.75987 | -81.55455 | 3465 ft | 126 kts | 283° |
| 2026-05-05 01:00 | 28.76182 | -81.56451 | 3469 ft | 128 kts | 283° |
| 2026-05-05 01:01 | 28.76379 | -81.57441 | 3467 ft | 130 kts | 283° |
| 2026-05-05 01:01 | 28.76581 | -81.58460 | 3468 ft | 131 kts | 283° |
| 2026-05-05 01:01 | 28.76782 | -81.59482 | 3466 ft | 132 kts | 283° |
| 2026-05-05 01:01 | 28.76986 | -81.60504 | 3463 ft | 132 kts | 283° |
| 2026-05-05 01:02 | 28.77191 | -81.61523 | 3463 ft | 132 kts | 283° |
| 2026-05-05 01:02 | 28.77414 | -81.62516 | 3486 ft | 127 kts | 287° |
| 2026-05-05 01:02 | 28.77659 | -81.63472 | 3539 ft | 125 kts | 289° |
| 2026-05-05 01:02 | 28.77990 | -81.64390 | 3613 ft | 121 kts | 296° |
| 2026-05-05 01:03 | 28.78344 | -81.65236 | 3696 ft | 118 kts | 299° |
| 2026-05-05 01:03 | 28.78734 | -81.66099 | 3549 ft | 128 kts | 298° |
| 2026-05-05 01:03 | 28.79145 | -81.66990 | 3388 ft | 123 kts | 302° |
| 2026-05-05 01:03 | 28.79637 | -81.67802 | 3135 ft | 129 kts | 311° |
| 2026-05-05 01:04 | 28.80199 | -81.68578 | 2876 ft | 120 kts | 317° |
| 2026-05-05 01:04 | 28.81339 | -81.69858 | 2412 ft | 122 kts | 326° |
| 2026-05-05 01:04 | 28.82053 | -81.70525 | 2170 ft | 136 kts | 329° |
| 2026-05-05 01:05 | 28.82751 | -81.71230 | 1884 ft | 130 kts | 319° |
| 2026-05-05 01:05 | 28.83231 | -81.72003 | 1753 ft | 113 kts | 299° |
| 2026-05-05 01:05 | 28.83573 | -81.72852 | 1419 ft | 117 kts | 305° |
| 2026-05-05 01:05 | 28.84023 | -81.73639 | 1386 ft | 117 kts | 309° |
| 2026-05-05 01:06 | 28.84407 | -81.74442 | 1382 ft | 110 kts | 301° |
| 2026-05-05 01:06 | 28.84650 | -81.75232 | 1366 ft | 107 kts | 281° |
| 2026-05-05 01:06 | 28.84782 | -81.76090 | 1341 ft | 113 kts | 279° |
| 2026-05-05 01:06 | 28.84790 | -81.76942 | 1217 ft | 102 kts | 262° |
| 2026-05-05 01:07 | 28.84682 | -81.77702 | 1042 ft | 96 kts | 251° |
| 2026-05-05 01:07 | 28.84500 | -81.78397 | 889 ft | 88 kts | 246° |
| 2026-05-05 01:07 | 28.84249 | -81.79003 | 725 ft | 80 kts | 231° |
| 2026-05-05 01:07 | 28.83906 | -81.79427 | 572 ft | 67 kts | 202° |
| 2026-05-05 01:08 | 28.83506 | -81.79709 | 427 ft | 71 kts | 194° |
| 2026-05-05 01:08 | 28.83071 | -81.80040 | 259 ft | 74 kts | 207° |
| 2026-05-05 01:08 | 28.82675 | -81.80343 | 98 ft | 65 kts | 207° |
| 2026-05-05 01:08 | 28.82365 | -81.80583 | 71 ft | 38 kts | 211° |
| 2026-05-05 01:09 | 28.82233 | -81.80705 | 71 ft | 13 kts | 260° |
| 2026-05-05 01:09 | 28.82311 | -81.80824 | 71 ft | 26 kts | 311° |
| 2026-05-05 01:09 | 28.82443 | -81.81008 | 72 ft | 33 kts | 309° |
| 2026-05-05 01:09 | 28.82570 | -81.81096 | 73 ft | 14 kts | 42° |
| 2026-05-05 01:10 | 28.82626 | -81.81042 | 73 ft | 12 kts | 42° |
| 2026-05-05 01:10 | 28.82737 | -81.81009 | 74 ft | 11 kts | 337° |
| 2026-05-05 01:10 | 28.82728 | -81.81030 | 74 ft | 0 kts | 191° |